Wahiawa, Hawaii
Current Conditions -  °F | °C
As of 12:58 AM on Friday 24 Oct 2014 (Local Time) from PHHI Reporting Station
Drizzle Drizzle  
Wind Chill: 72°   Ceiling: 2000
Heat Index: 72°   Visibility: 10mi
Dew Point: 69°   Wind: 6mph
Humidity: 89%   Direction: 60°ENE
Pressure: 30.05"   Gusts: NA
Location:  21.5°N, 158.02°W
Report Text: PHHI 241058Z 06005KT 10SM -DZ BKN020 22/20 A3005 RMK AO2A RAB1046E1047DZB0957E1014B1034 SLP164 P0000 T02220204 $
Loading
Personal Weather Stations






























Interactive Weather Map
Tropical Storm Tracking
New forecast layout! Learn more

10-Day Weather Forecast

Advertisements
Track Severe Weather on mobile